sensor_id;sensor_type;location;lat;lon;timestamp;P1;durP1;ratioP1;P2;durP2;ratioP2
75005;SDS011;63553;51.814;4.600;2023-11-19T00:00:19;7.60;;;2.17;;
75005;SDS011;63553;51.814;4.600;2023-11-19T00:02:44;10.60;;;2.50;;
75005;SDS011;63553;51.814;4.600;2023-11-19T00:05:10;5.38;;;2.58;;
75005;SDS011;63553;51.814;4.600;2023-11-19T00:07:38;7.25;;;2.90;;
75005;SDS011;63553;51.814;4.600;2023-11-19T00:10:16;7.63;;;2.67;;
75005;SDS011;63553;51.814;4.600;2023-11-19T00:12:49;9.68;;;3.35;;
75005;SDS011;63553;51.814;4.600;2023-11-19T00:15:15;9.13;;;3.45;;
75005;SDS011;63553;51.814;4.600;2023-11-19T00:17:44;8.85;;;2.20;;
75005;SDS011;63553;51.814;4.600;2023-11-19T00:20:19;10.57;;;2.60;;
75005;SDS011;63553;51.814;4.600;2023-11-19T00:22:47;9.73;;;2.47;;
75005;SDS011;63553;51.814;4.600;2023-11-19T00:25:19;7.43;;;3.20;;
75005;SDS011;63553;51.814;4.600;2023-11-19T00:27:46;5.20;;;2.28;;
75005;SDS011;63553;51.814;4.600;2023-11-19T00:30:12;7.93;;;1.98;;
75005;SDS011;63553;51.814;4.600;2023-11-19T00:32:38;4.97;;;2.05;;
75005;SDS011;63553;51.814;4.600;2023-11-19T00:35:05;6.18;;;2.38;;
75005;SDS011;63553;51.814;4.600;2023-11-19T00:37:31;10.38;;;2.88;;
75005;SDS011;63553;51.814;4.600;2023-11-19T00:39:56;12.90;;;2.50;;
75005;SDS011;63553;51.814;4.600;2023-11-19T00:42:23;7.03;;;2.92;;
75005;SDS011;63553;51.814;4.600;2023-11-19T00:44:49;6.38;;;2.20;;
75005;SDS011;63553;51.814;4.600;2023-11-19T00:47:15;8.02;;;2.45;;
75005;SDS011;63553;51.814;4.600;2023-11-19T00:49:40;6.93;;;2.17;;
75005;SDS011;63553;51.814;4.600;2023-11-19T00:52:05;6.33;;;2.73;;
75005;SDS011;63553;51.814;4.600;2023-11-19T00:54:31;9.45;;;3.05;;
75005;SDS011;63553;51.814;4.600;2023-11-19T00:56:57;6.88;;;2.25;;
75005;SDS011;63553;51.814;4.600;2023-11-19T00:59:22;9.15;;;2.88;;
75005;SDS011;63553;51.814;4.600;2023-11-19T01:01:47;5.83;;;2.77;;
75005;SDS011;63553;51.814;4.600;2023-11-19T01:04:13;11.35;;;4.35;;
75005;SDS011;63553;51.814;4.600;2023-11-19T01:06:40;11.13;;;2.67;;
75005;SDS011;63553;51.814;4.600;2023-11-19T01:09:07;12.05;;;2.40;;
75005;SDS011;63553;51.814;4.600;2023-11-19T01:11:33;6.40;;;2.38;;
75005;SDS011;63553;51.814;4.600;2023-11-19T01:13:59;13.50;;;3.00;;
75005;SDS011;63553;51.814;4.600;2023-11-19T01:16:25;7.50;;;2.40;;
75005;SDS011;63553;51.814;4.600;2023-11-19T01:18:51;8.77;;;2.20;;
75005;SDS011;63553;51.814;4.600;2023-11-19T01:21:17;15.40;;;3.80;;
75005;SDS011;63553;51.814;4.600;2023-11-19T01:23:43;15.20;;;3.63;;
75005;SDS011;63553;51.814;4.600;2023-11-19T01:26:09;19.27;;;3.40;;
75005;SDS011;63553;51.814;4.600;2023-11-19T01:28:38;11.95;;;2.80;;
75005;SDS011;63553;51.814;4.600;2023-11-19T01:31:09;9.98;;;2.80;;
75005;SDS011;63553;51.814;4.600;2023-11-19T01:33:40;20.52;;;3.45;;
75005;SDS011;63553;51.814;4.600;2023-11-19T01:36:06;15.85;;;3.33;;
75005;SDS011;63553;51.814;4.600;2023-11-19T01:38:32;13.15;;;4.05;;
75005;SDS011;63553;51.814;4.600;2023-11-19T01:40:58;19.40;;;3.40;;
75005;SDS011;63553;51.814;4.600;2023-11-19T01:43:33;14.02;;;3.63;;
75005;SDS011;63553;51.814;4.600;2023-11-19T01:46:03;13.70;;;2.80;;
75005;SDS011;63553;51.814;4.600;2023-11-19T01:48:29;13.48;;;3.45;;
75005;SDS011;63553;51.814;4.600;2023-11-19T01:50:57;16.55;;;3.67;;
75005;SDS011;63553;51.814;4.600;2023-11-19T01:53:23;13.00;;;4.10;;
75005;SDS011;63553;51.814;4.600;2023-11-19T01:55:49;18.02;;;3.95;;
75005;SDS011;63553;51.814;4.600;2023-11-19T01:58:15;13.93;;;3.55;;
75005;SDS011;63553;51.814;4.600;2023-11-19T02:00:41;14.93;;;3.30;;
75005;SDS011;63553;51.814;4.600;2023-11-19T02:03:09;14.52;;;3.17;;
75005;SDS011;63553;51.814;4.600;2023-11-19T02:05:35;17.20;;;3.47;;
75005;SDS011;63553;51.814;4.600;2023-11-19T02:08:01;11.88;;;3.88;;
75005;SDS011;63553;51.814;4.600;2023-11-19T02:10:28;13.13;;;3.03;;
75005;SDS011;63553;51.814;4.600;2023-11-19T02:12:53;14.93;;;3.23;;
75005;SDS011;63553;51.814;4.600;2023-11-19T02:15:20;11.40;;;3.13;;
75005;SDS011;63553;51.814;4.600;2023-11-19T02:17:47;13.95;;;4.03;;
75005;SDS011;63553;51.814;4.600;2023-11-19T02:20:12;11.20;;;2.28;;
75005;SDS011;63553;51.814;4.600;2023-11-19T02:22:39;9.63;;;2.67;;
75005;SDS011;63553;51.814;4.600;2023-11-19T02:25:07;14.10;;;3.22;;
75005;SDS011;63553;51.814;4.600;2023-11-19T02:30:22;19.80;;;3.65;;
75005;SDS011;63553;51.814;4.600;2023-11-19T02:32:51;20.42;;;4.25;;
75005;SDS011;63553;51.814;4.600;2023-11-19T02:35:18;21.42;;;3.65;;
75005;SDS011;63553;51.814;4.600;2023-11-19T02:37:43;14.98;;;3.05;;
75005;SDS011;63553;51.814;4.600;2023-11-19T02:40:10;19.08;;;3.22;;
75005;SDS011;63553;51.814;4.600;2023-11-19T02:42:35;16.13;;;3.58;;
75005;SDS011;63553;51.814;4.600;2023-11-19T02:45:01;18.48;;;3.42;;
75005;SDS011;63553;51.814;4.600;2023-11-19T02:47:27;18.10;;;3.90;;
75005;SDS011;63553;51.814;4.600;2023-11-19T02:49:55;12.40;;;3.00;;
75005;SDS011;63553;51.814;4.600;2023-11-19T02:52:20;24.55;;;4.55;;
75005;SDS011;63553;51.814;4.600;2023-11-19T02:54:46;19.65;;;4.63;;
75005;SDS011;63553;51.814;4.600;2023-11-19T02:57:11;21.80;;;3.70;;
75005;SDS011;63553;51.814;4.600;2023-11-19T02:59:38;18.23;;;4.18;;
75005;SDS011;63553;51.814;4.600;2023-11-19T03:02:06;18.27;;;3.10;;
75005;SDS011;63553;51.814;4.600;2023-11-19T03:04:36;20.23;;;4.43;;
75005;SDS011;63553;51.814;4.600;2023-11-19T03:07:01;15.90;;;3.40;;
75005;SDS011;63553;51.814;4.600;2023-11-19T03:09:27;23.15;;;3.70;;
75005;SDS011;63553;51.814;4.600;2023-11-19T03:11:54;21.10;;;5.30;;
75005;SDS011;63553;51.814;4.600;2023-11-19T03:14:19;16.02;;;3.85;;
75005;SDS011;63553;51.814;4.600;2023-11-19T03:16:45;15.70;;;3.55;;
75005;SDS011;63553;51.814;4.600;2023-11-19T03:19:11;15.48;;;3.92;;
75005;SDS011;63553;51.814;4.600;2023-11-19T03:21:37;14.15;;;3.08;;
75005;SDS011;63553;51.814;4.600;2023-11-19T03:24:02;15.30;;;3.47;;
75005;SDS011;63553;51.814;4.600;2023-11-19T03:26:28;12.77;;;3.30;;
75005;SDS011;63553;51.814;4.600;2023-11-19T03:28:54;21.75;;;4.20;;
75005;SDS011;63553;51.814;4.600;2023-11-19T03:31:19;21.58;;;4.10;;
75005;SDS011;63553;51.814;4.600;2023-11-19T03:33:45;17.60;;;4.50;;
75005;SDS011;63553;51.814;4.600;2023-11-19T03:36:11;15.10;;;3.17;;
75005;SDS011;63553;51.814;4.600;2023-11-19T03:38:37;18.58;;;3.45;;
75005;SDS011;63553;51.814;4.600;2023-11-19T03:41:12;20.00;;;3.78;;
75005;SDS011;63553;51.814;4.600;2023-11-19T03:43:39;18.35;;;3.38;;
75005;SDS011;63553;51.814;4.600;2023-11-19T03:46:05;19.52;;;4.18;;
75005;SDS011;63553;51.814;4.600;2023-11-19T03:48:43;14.02;;;3.00;;
75005;SDS011;63553;51.814;4.600;2023-11-19T03:51:08;16.88;;;3.38;;
75005;SDS011;63553;51.814;4.600;2023-11-19T03:53:34;14.10;;;3.78;;
75005;SDS011;63553;51.814;4.600;2023-11-19T03:56:00;16.92;;;2.88;;
75005;SDS011;63553;51.814;4.600;2023-11-19T03:58:25;18.52;;;3.65;;
75005;SDS011;63553;51.814;4.600;2023-11-19T04:00:51;17.33;;;3.90;;
75005;SDS011;63553;51.814;4.600;2023-11-19T04:03:17;15.18;;;2.92;;
75005;SDS011;63553;51.814;4.600;2023-11-19T04:05:44;10.30;;;3.03;;
75005;SDS011;63553;51.814;4.600;2023-11-19T04:08:10;10.60;;;3.35;;
75005;SDS011;63553;51.814;4.600;2023-11-19T04:10:35;14.73;;;3.40;;
75005;SDS011;63553;51.814;4.600;2023-11-19T04:13:00;16.50;;;3.63;;
75005;SDS011;63553;51.814;4.600;2023-11-19T04:15:26;14.32;;;3.28;;
75005;SDS011;63553;51.814;4.600;2023-11-19T04:17:51;14.27;;;3.20;;
75005;SDS011;63553;51.814;4.600;2023-11-19T04:20:16;17.37;;;3.33;;
75005;SDS011;63553;51.814;4.600;2023-11-19T04:22:42;15.40;;;3.63;;
75005;SDS011;63553;51.814;4.600;2023-11-19T04:25:07;21.53;;;3.70;;
75005;SDS011;63553;51.814;4.600;2023-11-19T04:27:33;17.00;;;3.67;;
75005;SDS011;63553;51.814;4.600;2023-11-19T04:29:59;19.07;;;3.73;;
75005;SDS011;63553;51.814;4.600;2023-11-19T04:32:26;14.88;;;3.10;;
75005;SDS011;63553;51.814;4.600;2023-11-19T04:34:52;12.45;;;2.75;;
75005;SDS011;63553;51.814;4.600;2023-11-19T04:37:17;16.25;;;2.92;;
75005;SDS011;63553;51.814;4.600;2023-11-19T04:39:44;13.68;;;3.22;;
75005;SDS011;63553;51.814;4.600;2023-11-19T04:42:11;17.77;;;4.00;;
75005;SDS011;63553;51.814;4.600;2023-11-19T04:44:37;13.13;;;3.03;;
75005;SDS011;63553;51.814;4.600;2023-11-19T04:47:03;21.67;;;3.53;;
75005;SDS011;63553;51.814;4.600;2023-11-19T04:49:28;18.08;;;3.75;;
75005;SDS011;63553;51.814;4.600;2023-11-19T04:51:55;11.88;;;3.10;;
75005;SDS011;63553;51.814;4.600;2023-11-19T04:54:20;20.03;;;3.60;;
75005;SDS011;63553;51.814;4.600;2023-11-19T04:56:46;23.63;;;4.03;;
75005;SDS011;63553;51.814;4.600;2023-11-19T04:59:12;18.52;;;3.45;;
75005;SDS011;63553;51.814;4.600;2023-11-19T05:01:37;21.00;;;3.85;;
75005;SDS011;63553;51.814;4.600;2023-11-19T05:04:03;15.00;;;3.35;;
75005;SDS011;63553;51.814;4.600;2023-11-19T05:06:29;14.45;;;3.92;;
75005;SDS011;63553;51.814;4.600;2023-11-19T05:08:55;16.08;;;3.47;;
75005;SDS011;63553;51.814;4.600;2023-11-19T05:11:21;16.15;;;3.20;;
75005;SDS011;63553;51.814;4.600;2023-11-19T05:13:47;12.20;;;3.45;;
75005;SDS011;63553;51.814;4.600;2023-11-19T05:16:12;18.38;;;3.63;;
75005;SDS011;63553;51.814;4.600;2023-11-19T05:18:39;20.17;;;3.80;;
75005;SDS011;63553;51.814;4.600;2023-11-19T05:21:05;18.15;;;3.67;;
75005;SDS011;63553;51.814;4.600;2023-11-19T05:23:30;13.93;;;2.92;;
75005;SDS011;63553;51.814;4.600;2023-11-19T05:25:56;12.77;;;2.93;;
75005;SDS011;63553;51.814;4.600;2023-11-19T05:28:23;16.25;;;3.20;;
75005;SDS011;63553;51.814;4.600;2023-11-19T05:30:49;19.48;;;3.15;;
75005;SDS011;63553;51.814;4.600;2023-11-19T05:33:15;18.45;;;2.78;;
75005;SDS011;63553;51.814;4.600;2023-11-19T05:35:40;13.47;;;3.20;;
75005;SDS011;63553;51.814;4.600;2023-11-19T05:38:06;16.73;;;3.00;;
75005;SDS011;63553;51.814;4.600;2023-11-19T05:40:31;19.90;;;3.60;;
75005;SDS011;63553;51.814;4.600;2023-11-19T05:42:56;13.23;;;3.75;;
75005;SDS011;63553;51.814;4.600;2023-11-19T05:45:22;14.63;;;3.67;;
75005;SDS011;63553;51.814;4.600;2023-11-19T05:47:47;19.60;;;3.47;;
75005;SDS011;63553;51.814;4.600;2023-11-19T05:50:12;14.80;;;3.40;;
75005;SDS011;63553;51.814;4.600;2023-11-19T05:52:38;20.23;;;3.77;;
75005;SDS011;63553;51.814;4.600;2023-11-19T05:55:03;16.15;;;3.33;;
75005;SDS011;63553;51.814;4.600;2023-11-19T05:57:31;19.08;;;4.30;;
75005;SDS011;63553;51.814;4.600;2023-11-19T05:59:56;16.83;;;3.60;;
75005;SDS011;63553;51.814;4.600;2023-11-19T06:02:22;23.48;;;3.80;;
75005;SDS011;63553;51.814;4.600;2023-11-19T06:04:47;18.50;;;3.27;;
75005;SDS011;63553;51.814;4.600;2023-11-19T06:07:13;22.13;;;4.28;;
75005;SDS011;63553;51.814;4.600;2023-11-19T06:09:40;22.63;;;3.42;;
75005;SDS011;63553;51.814;4.600;2023-11-19T06:12:05;16.35;;;3.55;;
75005;SDS011;63553;51.814;4.600;2023-11-19T06:14:32;20.40;;;3.67;;
75005;SDS011;63553;51.814;4.600;2023-11-19T06:16:57;24.20;;;4.88;;
75005;SDS011;63553;51.814;4.600;2023-11-19T06:19:23;25.03;;;4.20;;
75005;SDS011;63553;51.814;4.600;2023-11-19T06:21:50;17.83;;;3.05;;
75005;SDS011;63553;51.814;4.600;2023-11-19T06:24:15;22.38;;;4.13;;
75005;SDS011;63553;51.814;4.600;2023-11-19T06:26:40;19.48;;;3.28;;
75005;SDS011;63553;51.814;4.600;2023-11-19T06:29:06;22.63;;;3.57;;
75005;SDS011;63553;51.814;4.600;2023-11-19T06:31:31;15.90;;;2.97;;
75005;SDS011;63553;51.814;4.600;2023-11-19T06:33:56;13.17;;;3.20;;
75005;SDS011;63553;51.814;4.600;2023-11-19T06:36:22;17.23;;;4.30;;
75005;SDS011;63553;51.814;4.600;2023-11-19T06:38:47;15.30;;;3.33;;
75005;SDS011;63553;51.814;4.600;2023-11-19T06:41:12;16.33;;;3.50;;
75005;SDS011;63553;51.814;4.600;2023-11-19T06:43:38;12.70;;;2.90;;
75005;SDS011;63553;51.814;4.600;2023-11-19T06:46:04;15.45;;;3.42;;
75005;SDS011;63553;51.814;4.600;2023-11-19T06:48:31;22.52;;;3.75;;
75005;SDS011;63553;51.814;4.600;2023-11-19T06:50:57;19.20;;;3.63;;
75005;SDS011;63553;51.814;4.600;2023-11-19T06:53:22;21.45;;;4.70;;
75005;SDS011;63553;51.814;4.600;2023-11-19T06:55:48;15.50;;;3.90;;
75005;SDS011;63553;51.814;4.600;2023-11-19T06:58:13;19.83;;;4.20;;
75005;SDS011;63553;51.814;4.600;2023-11-19T07:00:39;21.90;;;4.05;;
75005;SDS011;63553;51.814;4.600;2023-11-19T07:03:04;13.67;;;3.23;;
75005;SDS011;63553;51.814;4.600;2023-11-19T07:05:31;22.27;;;4.50;;
75005;SDS011;63553;51.814;4.600;2023-11-19T07:07:56;21.55;;;3.53;;
75005;SDS011;63553;51.814;4.600;2023-11-19T07:10:21;21.83;;;4.50;;
75005;SDS011;63553;51.814;4.600;2023-11-19T07:12:47;21.00;;;4.03;;
75005;SDS011;63553;51.814;4.600;2023-11-19T07:15:15;14.88;;;3.58;;
75005;SDS011;63553;51.814;4.600;2023-11-19T07:17:42;20.08;;;2.95;;
75005;SDS011;63553;51.814;4.600;2023-11-19T07:20:10;19.42;;;3.75;;
75005;SDS011;63553;51.814;4.600;2023-11-19T07:22:38;20.10;;;3.10;;
75005;SDS011;63553;51.814;4.600;2023-11-19T07:25:04;16.20;;;3.22;;
75005;SDS011;63553;51.814;4.600;2023-11-19T07:27:29;17.58;;;2.90;;
75005;SDS011;63553;51.814;4.600;2023-11-19T07:29:55;17.20;;;3.00;;
75005;SDS011;63553;51.814;4.600;2023-11-19T07:32:21;20.27;;;3.33;;
75005;SDS011;63553;51.814;4.600;2023-11-19T07:34:46;17.73;;;3.40;;
75005;SDS011;63553;51.814;4.600;2023-11-19T07:37:11;15.27;;;3.93;;
75005;SDS011;63553;51.814;4.600;2023-11-19T07:39:37;15.25;;;3.70;;
75005;SDS011;63553;51.814;4.600;2023-11-19T07:42:05;28.92;;;4.47;;
75005;SDS011;63553;51.814;4.600;2023-11-19T07:44:31;18.63;;;3.72;;
75005;SDS011;63553;51.814;4.600;2023-11-19T07:46:57;20.40;;;3.72;;
75005;SDS011;63553;51.814;4.600;2023-11-19T07:49:23;24.63;;;3.40;;
75005;SDS011;63553;51.814;4.600;2023-11-19T07:51:48;14.82;;;3.28;;
75005;SDS011;63553;51.814;4.600;2023-11-19T07:54:14;24.92;;;3.55;;
75005;SDS011;63553;51.814;4.600;2023-11-19T07:56:39;17.17;;;3.37;;
75005;SDS011;63553;51.814;4.600;2023-11-19T07:59:04;14.52;;;3.25;;
75005;SDS011;63553;51.814;4.600;2023-11-19T08:01:30;16.42;;;2.97;;
75005;SDS011;63553;51.814;4.600;2023-11-19T08:03:55;15.33;;;3.27;;
75005;SDS011;63553;51.814;4.600;2023-11-19T08:06:21;15.48;;;2.67;;
75005;SDS011;63553;51.814;4.600;2023-11-19T08:08:46;12.68;;;3.13;;
75005;SDS011;63553;51.814;4.600;2023-11-19T08:11:13;22.58;;;4.07;;
75005;SDS011;63553;51.814;4.600;2023-11-19T08:13:38;13.27;;;3.22;;
75005;SDS011;63553;51.814;4.600;2023-11-19T08:16:04;13.40;;;4.10;;
75005;SDS011;63553;51.814;4.600;2023-11-19T08:18:29;18.00;;;3.88;;
75005;SDS011;63553;51.814;4.600;2023-11-19T08:20:55;16.80;;;3.33;;
75005;SDS011;63553;51.814;4.600;2023-11-19T08:23:21;14.10;;;3.55;;
75005;SDS011;63553;51.814;4.600;2023-11-19T08:25:48;15.85;;;3.58;;
75005;SDS011;63553;51.814;4.600;2023-11-19T08:28:14;13.73;;;3.38;;
75005;SDS011;63553;51.814;4.600;2023-11-19T08:30:40;14.05;;;3.13;;
75005;SDS011;63553;51.814;4.600;2023-11-19T08:33:05;18.13;;;3.30;;
75005;SDS011;63553;51.814;4.600;2023-11-19T08:35:32;22.40;;;4.28;;
75005;SDS011;63553;51.814;4.600;2023-11-19T08:37:57;15.77;;;3.15;;
75005;SDS011;63553;51.814;4.600;2023-11-19T08:40:24;18.15;;;3.55;;
75005;SDS011;63553;51.814;4.600;2023-11-19T08:42:50;15.95;;;3.47;;
75005;SDS011;63553;51.814;4.600;2023-11-19T08:45:16;14.07;;;3.17;;
75005;SDS011;63553;51.814;4.600;2023-11-19T08:47:41;14.33;;;2.97;;
75005;SDS011;63553;51.814;4.600;2023-11-19T08:50:07;18.67;;;3.17;;
75005;SDS011;63553;51.814;4.600;2023-11-19T08:52:33;15.88;;;3.80;;
75005;SDS011;63553;51.814;4.600;2023-11-19T08:54:58;13.27;;;3.38;;
75005;SDS011;63553;51.814;4.600;2023-11-19T08:57:24;13.53;;;3.90;;
75005;SDS011;63553;51.814;4.600;2023-11-19T08:59:49;15.23;;;3.13;;
75005;SDS011;63553;51.814;4.600;2023-11-19T09:02:14;16.95;;;3.97;;
75005;SDS011;63553;51.814;4.600;2023-11-19T09:04:40;24.83;;;4.25;;
75005;SDS011;63553;51.814;4.600;2023-11-19T09:07:06;13.40;;;3.28;;
75005;SDS011;63553;51.814;4.600;2023-11-19T09:09:31;12.02;;;2.53;;
75005;SDS011;63553;51.814;4.600;2023-11-19T09:12:00;13.85;;;3.00;;
75005;SDS011;63553;51.814;4.600;2023-11-19T09:14:26;16.77;;;3.13;;
75005;SDS011;63553;51.814;4.600;2023-11-19T09:16:51;14.68;;;3.47;;
75005;SDS011;63553;51.814;4.600;2023-11-19T09:19:17;16.52;;;3.70;;
75005;SDS011;63553;51.814;4.600;2023-11-19T09:21:43;14.35;;;3.78;;
75005;SDS011;63553;51.814;4.600;2023-11-19T09:24:09;17.92;;;3.38;;
75005;SDS011;63553;51.814;4.600;2023-11-19T09:26:34;17.58;;;3.63;;
75005;SDS011;63553;51.814;4.600;2023-11-19T09:29:01;14.25;;;3.80;;
75005;SDS011;63553;51.814;4.600;2023-11-19T09:31:26;12.80;;;3.17;;
75005;SDS011;63553;51.814;4.600;2023-11-19T09:33:52;16.55;;;3.22;;
75005;SDS011;63553;51.814;4.600;2023-11-19T09:36:17;14.00;;;3.53;;
75005;SDS011;63553;51.814;4.600;2023-11-19T09:38:44;14.85;;;3.60;;
75005;SDS011;63553;51.814;4.600;2023-11-19T09:41:10;19.88;;;6.88;;
75005;SDS011;63553;51.814;4.600;2023-11-19T09:43:41;18.58;;;6.07;;
75005;SDS011;63553;51.814;4.600;2023-11-19T09:46:09;20.17;;;7.25;;
75005;SDS011;63553;51.814;4.600;2023-11-19T09:48:38;17.08;;;6.85;;
75005;SDS011;63553;51.814;4.600;2023-11-19T09:51:07;16.40;;;4.95;;
75005;SDS011;63553;51.814;4.600;2023-11-19T09:53:36;14.38;;;5.00;;
75005;SDS011;63553;51.814;4.600;2023-11-19T09:56:03;14.05;;;5.03;;
75005;SDS011;63553;51.814;4.600;2023-11-19T09:58:30;15.95;;;4.93;;
75005;SDS011;63553;51.814;4.600;2023-11-19T10:00:56;18.00;;;4.20;;
75005;SDS011;63553;51.814;4.600;2023-11-19T10:03:24;13.13;;;4.05;;
75005;SDS011;63553;51.814;4.600;2023-11-19T10:05:51;19.40;;;5.30;;
75005;SDS011;63553;51.814;4.600;2023-11-19T10:08:18;13.00;;;4.20;;
75005;SDS011;63553;51.814;4.600;2023-11-19T10:10:43;15.18;;;3.97;;
75005;SDS011;63553;51.814;4.600;2023-11-19T10:13:09;14.25;;;4.85;;
75005;SDS011;63553;51.814;4.600;2023-11-19T10:15:36;8.50;;;3.53;;
75005;SDS011;63553;51.814;4.600;2023-11-19T10:18:02;17.35;;;4.35;;
75005;SDS011;63553;51.814;4.600;2023-11-19T10:20:35;10.32;;;3.70;;
75005;SDS011;63553;51.814;4.600;2023-11-19T10:23:05;13.13;;;4.07;;
75005;SDS011;63553;51.814;4.600;2023-11-19T10:25:31;15.45;;;3.70;;
75005;SDS011;63553;51.814;4.600;2023-11-19T10:27:58;15.13;;;4.95;;
75005;SDS011;63553;51.814;4.600;2023-11-19T10:30:24;21.52;;;4.47;;
75005;SDS011;63553;51.814;4.600;2023-11-19T10:33:02;16.75;;;4.60;;
75005;SDS011;63553;51.814;4.600;2023-11-19T10:35:53;9.45;;;3.65;;
75005;SDS011;63553;51.814;4.600;2023-11-19T10:38:21;19.58;;;4.25;;
75005;SDS011;63553;51.814;4.600;2023-11-19T10:40:47;13.90;;;3.83;;
75005;SDS011;63553;51.814;4.600;2023-11-19T10:43:13;14.85;;;3.50;;
75005;SDS011;63553;51.814;4.600;2023-11-19T10:45:39;19.25;;;4.35;;
75005;SDS011;63553;51.814;4.600;2023-11-19T10:48:05;13.13;;;3.50;;
75005;SDS011;63553;51.814;4.600;2023-11-19T10:50:32;13.20;;;3.55;;
75005;SDS011;63553;51.814;4.600;2023-11-19T10:52:58;17.50;;;4.20;;
75005;SDS011;63553;51.814;4.600;2023-11-19T10:55:26;37.10;;;6.40;;
75005;SDS011;63553;51.814;4.600;2023-11-19T10:57:55;85.13;;;14.35;;
75005;SDS011;63553;51.814;4.600;2023-11-19T11:00:25;44.15;;;12.48;;
75005;SDS011;63553;51.814;4.600;2023-11-19T11:02:53;30.05;;;6.55;;
75005;SDS011;63553;51.814;4.600;2023-11-19T11:05:21;20.55;;;4.63;;
75005;SDS011;63553;51.814;4.600;2023-11-19T11:07:47;34.60;;;7.20;;
75005;SDS011;63553;51.814;4.600;2023-11-19T11:10:16;18.42;;;3.45;;
75005;SDS011;63553;51.814;4.600;2023-11-19T11:12:43;13.10;;;2.97;;
75005;SDS011;63553;51.814;4.600;2023-11-19T11:15:11;12.23;;;3.13;;
75005;SDS011;63553;51.814;4.600;2023-11-19T11:17:40;6.47;;;2.80;;
75005;SDS011;63553;51.814;4.600;2023-11-19T11:20:07;10.40;;;3.53;;
75005;SDS011;63553;51.814;4.600;2023-11-19T11:22:37;13.52;;;3.00;;
75005;SDS011;63553;51.814;4.600;2023-11-19T11:39:39;16.20;;;3.63;;
75005;SDS011;63553;51.814;4.600;2023-11-19T11:47:23;13.18;;;3.00;;
75005;SDS011;63553;51.814;4.600;2023-11-19T11:49:48;11.63;;;3.10;;
75005;SDS011;63553;51.814;4.600;2023-11-19T11:52:16;10.52;;;3.17;;
75005;SDS011;63553;51.814;4.600;2023-11-19T11:54:42;13.20;;;2.85;;
75005;SDS011;63553;51.814;4.600;2023-11-19T11:57:11;15.35;;;3.75;;
75005;SDS011;63553;51.814;4.600;2023-11-19T11:59:47;18.35;;;4.07;;
75005;SDS011;63553;51.814;4.600;2023-11-19T12:02:14;13.30;;;3.80;;
75005;SDS011;63553;51.814;4.600;2023-11-19T12:04:41;14.65;;;3.88;;
75005;SDS011;63553;51.814;4.600;2023-11-19T12:09:47;11.73;;;4.00;;
75005;SDS011;63553;51.814;4.600;2023-11-19T12:14:59;11.60;;;3.70;;
75005;SDS011;63553;51.814;4.600;2023-11-19T12:17:36;11.07;;;3.80;;
75005;SDS011;63553;51.814;4.600;2023-11-19T12:20:07;17.63;;;3.70;;
75005;SDS011;63553;51.814;4.600;2023-11-19T12:22:42;10.55;;;3.83;;
75005;SDS011;63553;51.814;4.600;2023-11-19T12:25:10;11.20;;;3.45;;
75005;SDS011;63553;51.814;4.600;2023-11-19T12:27:37;16.52;;;4.13;;
75005;SDS011;63553;51.814;4.600;2023-11-19T12:30:05;15.95;;;4.63;;
75005;SDS011;63553;51.814;4.600;2023-11-19T12:32:37;14.88;;;4.38;;
75005;SDS011;63553;51.814;4.600;2023-11-19T12:35:04;12.23;;;3.78;;
75005;SDS011;63553;51.814;4.600;2023-11-19T12:37:30;12.13;;;4.35;;
75005;SDS011;63553;51.814;4.600;2023-11-19T12:39:56;14.98;;;4.20;;
75005;SDS011;63553;51.814;4.600;2023-11-19T12:42:36;13.05;;;3.90;;
75005;SDS011;63553;51.814;4.600;2023-11-19T12:45:02;8.57;;;3.55;;
75005;SDS011;63553;51.814;4.600;2023-11-19T12:47:27;12.30;;;3.28;;
75005;SDS011;63553;51.814;4.600;2023-11-19T12:49:59;11.27;;;3.23;;
75005;SDS011;63553;51.814;4.600;2023-11-19T12:52:24;11.23;;;3.50;;
75005;SDS011;63553;51.814;4.600;2023-11-19T12:54:50;9.60;;;3.92;;
75005;SDS011;63553;51.814;4.600;2023-11-19T12:57:16;10.57;;;2.78;;
75005;SDS011;63553;51.814;4.600;2023-11-19T12:59:53;11.52;;;3.63;;
75005;SDS011;63553;51.814;4.600;2023-11-19T13:02:19;12.82;;;4.10;;
75005;SDS011;63553;51.814;4.600;2023-11-19T13:04:44;9.87;;;3.97;;
75005;SDS011;63553;51.814;4.600;2023-11-19T13:07:11;13.35;;;4.57;;
75005;SDS011;63553;51.814;4.600;2023-11-19T13:09:36;17.00;;;5.63;;
75005;SDS011;63553;51.814;4.600;2023-11-19T13:12:11;12.88;;;3.85;;
75005;SDS011;63553;51.814;4.600;2023-11-19T13:14:38;11.32;;;3.50;;
75005;SDS011;63553;51.814;4.600;2023-11-19T13:17:04;11.95;;;3.35;;
75005;SDS011;63553;51.814;4.600;2023-11-19T13:19:30;14.63;;;4.15;;
75005;SDS011;63553;51.814;4.600;2023-11-19T13:21:56;16.95;;;4.20;;
75005;SDS011;63553;51.814;4.600;2023-11-19T13:24:21;12.40;;;3.20;;
75005;SDS011;63553;51.814;4.600;2023-11-19T13:26:46;10.37;;;4.00;;
75005;SDS011;63553;51.814;4.600;2023-11-19T13:29:12;12.30;;;3.85;;
75005;SDS011;63553;51.814;4.600;2023-11-19T13:31:37;14.10;;;3.77;;
75005;SDS011;63553;51.814;4.600;2023-11-19T13:34:03;13.85;;;4.07;;
75005;SDS011;63553;51.814;4.600;2023-11-19T13:36:28;13.70;;;3.80;;
75005;SDS011;63553;51.814;4.600;2023-11-19T13:38:54;13.17;;;3.10;;
75005;SDS011;63553;51.814;4.600;2023-11-19T13:41:27;13.05;;;3.15;;
75005;SDS011;63553;51.814;4.600;2023-11-19T13:43:52;12.77;;;2.90;;
75005;SDS011;63553;51.814;4.600;2023-11-19T13:46:18;8.95;;;3.15;;
75005;SDS011;63553;51.814;4.600;2023-11-19T13:48:45;17.17;;;4.80;;
75005;SDS011;63553;51.814;4.600;2023-11-19T13:51:10;12.65;;;3.42;;
75005;SDS011;63553;51.814;4.600;2023-11-19T13:53:35;8.40;;;2.63;;
75005;SDS011;63553;51.814;4.600;2023-11-19T13:56:01;10.52;;;3.47;;
75005;SDS011;63553;51.814;4.600;2023-11-19T13:58:26;11.85;;;3.72;;
75005;SDS011;63553;51.814;4.600;2023-11-19T14:00:52;8.40;;;3.20;;
75005;SDS011;63553;51.814;4.600;2023-11-19T14:03:17;12.18;;;3.08;;
75005;SDS011;63553;51.814;4.600;2023-11-19T14:05:42;14.40;;;3.40;;
75005;SDS011;63553;51.814;4.600;2023-11-19T14:08:08;9.13;;;2.80;;
75005;SDS011;63553;51.814;4.600;2023-11-19T14:10:36;11.20;;;3.30;;
75005;SDS011;63553;51.814;4.600;2023-11-19T14:13:07;14.88;;;3.05;;
75005;SDS011;63553;51.814;4.600;2023-11-19T14:15:33;10.25;;;2.90;;
75005;SDS011;63553;51.814;4.600;2023-11-19T14:17:59;7.95;;;2.88;;
75005;SDS011;63553;51.814;4.600;2023-11-19T14:20:24;10.80;;;2.85;;
75005;SDS011;63553;51.814;4.600;2023-11-19T14:22:50;10.63;;;3.63;;
75005;SDS011;63553;51.814;4.600;2023-11-19T14:25:17;9.27;;;2.80;;
75005;SDS011;63553;51.814;4.600;2023-11-19T14:27:43;11.43;;;2.65;;
75005;SDS011;63553;51.814;4.600;2023-11-19T14:30:09;9.32;;;2.58;;
75005;SDS011;63553;51.814;4.600;2023-11-19T14:32:36;10.32;;;2.80;;
75005;SDS011;63553;51.814;4.600;2023-11-19T14:35:02;9.15;;;2.70;;
75005;SDS011;63553;51.814;4.600;2023-11-19T14:37:28;7.30;;;2.90;;
75005;SDS011;63553;51.814;4.600;2023-11-19T14:39:55;8.75;;;3.08;;
75005;SDS011;63553;51.814;4.600;2023-11-19T14:42:22;9.13;;;3.15;;
75005;SDS011;63553;51.814;4.600;2023-11-19T14:44:48;7.53;;;2.80;;
75005;SDS011;63553;51.814;4.600;2023-11-19T14:47:13;10.80;;;3.15;;
75005;SDS011;63553;51.814;4.600;2023-11-19T14:49:38;6.10;;;2.50;;
75005;SDS011;63553;51.814;4.600;2023-11-19T14:52:04;9.05;;;2.65;;
75005;SDS011;63553;51.814;4.600;2023-11-19T14:54:29;4.68;;;2.28;;
75005;SDS011;63553;51.814;4.600;2023-11-19T14:56:55;6.03;;;2.22;;
75005;SDS011;63553;51.814;4.600;2023-11-19T14:59:21;8.13;;;2.55;;